»·PEaware :: TCF476 KPDX-KMFR

TCF476 :: KPDX-KMFR

FLIGHT INFORMATION

Flight Status: Arrived
Operator: Shuttle America
More flights by this operator :: More flights under this callsign
Pilot: Alex S. (7186)
Aircraft: EMBRAER EMB-170/175
(E170)
More flights by this aircraft type
Origin: KPDX Portland Intl
United States
Destination: KMFR Rogue Valley Intl-Medford
United States
More flights between these airports :: More routes between these airports
Route: HRMNS5 HRMNS OED
File this flight plan on PilotEdge
Remarks:
Altitude:
(Current/Filed)
20,000ft
Speed:
(Current/Filed)
394kts
Departed: 09-Jan-18 10:16 AM
Arrived: 09-Jan-18 10:56 AM
Distance/Time
Traveled:
194nm/0:39
Distance/Time
To Go:
Arrived

Flight Plot

Page will automatically refresh every two minutes.

Flight plan parsing failed; only flown route is shown


Map Options




Map Legend


Flown Route
Filed Route
Departure Airport
Arrival Airport
Navaid (VOR, NDB)
Fix

Horizontal Profiles

Position Reports

Time Latitude Longitude Heading Altitude Ground
Speed
09-Jan-18 09:58 45.591182 -122.596727 58 22ft 0kts
09-Jan-18 09:59 45.591182 -122.596727 58 22ft 0kts
09-Jan-18 10:00 45.591182 -122.596727 58 22ft 0kts
09-Jan-18 10:01 45.591182 -122.596727 58 22ft 0kts
09-Jan-18 10:02 45.591182 -122.596727 58 22ft 0kts
09-Jan-18 10:03 45.591182 -122.596727 58 22ft 0kts
09-Jan-18 10:04 45.591182 -122.596727 58 22ft 0kts
09-Jan-18 10:05 45.591182 -122.596727 58 22ft 0kts
09-Jan-18 10:06 45.591182 -122.596727 58 22ft 0kts
09-Jan-18 10:07 45.591182 -122.596727 58 22ft 0kts
09-Jan-18 10:08 45.591182 -122.596727 58 22ft 0kts
09-Jan-18 10:09 45.591182 -122.596727 58 22ft 0kts
09-Jan-18 10:10 45.591182 -122.596727 58 22ft 0kts
09-Jan-18 10:11 45.591182 -122.596727 58 22ft 0kts
09-Jan-18 10:12 45.591181 -122.596729 58 22ft 0kts
09-Jan-18 10:13 45.590788 -122.597327 28 22ft 2kts
09-Jan-18 10:14 45.590483 -122.597033 299 22ft 0kts
09-Jan-18 10:15 45.590483 -122.597033 299 22ft 0kts
09-Jan-18 10:16 45.590824 -122.597888 298 22ft 10kts
09-Jan-18 10:17 45.591131 -122.598578 319 22ft 0kts
09-Jan-18 10:18 45.591252 -122.598711 323 22ft 7kts
09-Jan-18 10:19 45.593348 -122.599022 43 22ft 13kts
09-Jan-18 10:20 45.594379 -122.597576 44 22ft 0kts
09-Jan-18 10:21 45.594678 -122.595334 121 22ft 10kts
09-Jan-18 10:22 45.579295 -122.548511 96 1651ft 189kts
09-Jan-18 10:23 45.567332 -122.467362 108 5253ft 221kts
09-Jan-18 10:24 45.549941 -122.378204 109 7957ft 276kts
09-Jan-18 10:25 45.496353 -122.311771 165 10377ft 309kts
09-Jan-18 10:26 45.411160 -122.312308 192 13231ft 326kts
09-Jan-18 10:27 45.321031 -122.329816 191 16216ft 338kts
09-Jan-18 10:28 45.227252 -122.345736 191 18851ft 349kts
09-Jan-18 10:29 45.130810 -122.361207 191 19960ft 360kts
09-Jan-18 10:30 45.029004 -122.377465 190 19966ft 374kts
09-Jan-18 10:31 44.927633 -122.394522 192 19966ft 369kts
09-Jan-18 10:32 44.828059 -122.415949 192 19971ft 369kts
09-Jan-18 10:33 44.728444 -122.437779 192 19963ft 369kts
09-Jan-18 10:34 44.628283 -122.459453 192 19953ft 370kts
09-Jan-18 10:35 44.527999 -122.480715 192 19951ft 369kts
09-Jan-18 10:36 44.427368 -122.502402 192 19955ft 369kts
09-Jan-18 10:37 44.328364 -122.523830 192 19965ft 369kts
09-Jan-18 10:38 44.227891 -122.545456 192 19967ft 369kts
09-Jan-18 10:39 44.127524 -122.567027 192 19748ft 370kts
09-Jan-18 10:40 44.027416 -122.588603 192 19746ft 370kts
09-Jan-18 10:41 43.926893 -122.610128 192 19746ft 370kts
09-Jan-18 10:42 43.827838 -122.631029 192 19751ft 370kts
09-Jan-18 10:43 43.727037 -122.652179 192 19753ft 370kts
09-Jan-18 10:44 43.627887 -122.675242 192 19755ft 370kts
09-Jan-18 10:45 43.527921 -122.697343 192 19754ft 371kts
09-Jan-18 10:46 43.426723 -122.718760 192 18799ft 373kts
09-Jan-18 10:47 43.325210 -122.739970 192 17836ft 368kts
09-Jan-18 10:48 43.229903 -122.759683 192 16595ft 343kts
09-Jan-18 10:49 43.137493 -122.778965 192 15404ft 338kts
09-Jan-18 10:50 43.046482 -122.797854 192 14211ft 333kts
09-Jan-18 10:51 42.956548 -122.816433 192 13015ft 329kts
09-Jan-18 10:52 42.868335 -122.834525 191 11913ft 326kts
09-Jan-18 10:53 42.788504 -122.867958 236 10592ft 303kts
09-Jan-18 10:54 42.754012 -122.956638 244 9252ft 269kts
09-Jan-18 10:55 42.705360 -123.022704 184 7941ft 279kts
09-Jan-18 10:56 42.633881 -123.009172 160 6729ft 271kts
09-Jan-18 10:57 42.564992 -122.973281 159 5198ft 253kts
09-Jan-18 10:58 42.507189 -122.942853 158 3936ft 204kts
09-Jan-18 10:59 42.461418 -122.918734 158 2965ft 157kts
09-Jan-18 11:00 42.425315 -122.899731 158 2176ft 134kts
09-Jan-18 11:01 42.390852 -122.881629 158 1467ft 131kts
09-Jan-18 11:02 42.371921 -122.871732 159 1321ft 26kts
09-Jan-18 11:03 42.369163 -122.872135 224 1321ft 9kts
09-Jan-18 11:04 42.369095 -122.873533 339 1321ft 0kts
09-Jan-18 11:05 42.369095 -122.873533 339 1321ft 0kts
09-Jan-18 11:06 42.369095 -122.873533 339 1321ft 0kts

Navigation Log

Ident Type
Flight plan parsing failed, navigation log unavailable